Solea — DBFI — position and weather

sailwx.info

Track history (hours):
 
Tides and Currents Weather Stations Pressure Air Temp Water Temp Dewpoint Dewpoint Depression Visibility Wind Speed Wind Dir Waves Ship Positions

Oceanographic research ship Solea (Germany)

Detailed information on ship capabilities available from University of Delaware's Ocean Information Center.

Last reported at 2019-Feb-15 23:56 UTC. Time now 2019-Feb-16 02:59 UTC.
Position N 55°51' E 005°50'.

Length 72 m; draft 5.2 m.

Type: Law enforcement. MMSI: 218692000.

Date/timePositionNaut miles runAvg speedWind from/ knotsBaromVisibWave heightAir tempDewpointWater temp
2019-Feb-15 23:56N 55°51' E 005°50'1 1.7
2019-Feb-15 23:06N 55°52' E 005°52'0 1.6
2019-Feb-15 23:00N 55°52' E 005°52'1 1.6
2019-Feb-15 22:31N 55°53' E 005°53'1 1.5
2019-Feb-15 21:59N 55°54' E 005°53'1 1.6
2019-Feb-15 21:30N 55°54' E 005°53'1 1.6
2019-Feb-15 21:01N 55°55' E 005°53'1 1.4
2019-Feb-15 20:30N 55°56' E 005°54'0 1.0
2019-Feb-15 19:59N 55°55' E 005°53'1 1.0
2019-Feb-15 19:30N 55°55' E 005°53'0 1.0
2019-Feb-15 19:00N 55°54' E 005°53'0 0.8
2019-Feb-15 18:30N 55°54' E 005°53'0 0.9
2019-Feb-15 18:00N 55°53' E 005°53'0 0.8
2019-Feb-15 17:30N 55°53' E 005°53'0 0.8
2019-Feb-15 17:01N 55°53' E 005°53'0 0.7
2019-Feb-15 16:30N 55°52' E 005°53'0 0.9
2019-Feb-15 16:01N 55°52' E 005°52'1 1.1
2019-Feb-15 15:30N 55°52' E 005°51'1 1.5
2019-Feb-15 15:00N 55°51' E 005°50'4 7.6
2019-Feb-15 14:30N 55°55' E 005°48'510.0
2019-Feb-15 14:00N 55°60' E 005°45'2 3.6
2019-Feb-15 13:30N 55°58' E 005°43'0 0.5
2019-Feb-15 13:00N 55°58' E 005°43'2 3.2
2019-Feb-15 12:30N 55°56' E 005°42'0 0.8
2019-Feb-15 11:59N 55°56' E 005°42'4 8.7
2019-Feb-15 11:30N 55°59' E 005°47'612.7
2019-Feb-15 11:00N 55°53' E 005°47'713.6
2019-Feb-15 10:29N 55°46' E 005°49'713.6
2019-Feb-15 10:00N 55°39' E 005°51'610.9
2019-Feb-15 09:30N 55°34' E 005°50'510.3
2019-Feb-15 08:58N 55°28' E 005°50'0 0.8
2019-Feb-15 08:30N 55°28' E 005°50'0 0.9
2019-Feb-15 08:00N 55°27' E 005°50'0 0.6
2019-Feb-15 07:27N 55°27' E 005°50'2 3.6
2019-Feb-15 06:53N 55°29' E 005°51'0 0.7
2019-Feb-15 06:30N 55°29' E 005°51'0 0.7
2019-Feb-15 06:00N 55°28' E 005°51'0 0.6
2019-Feb-15 05:30N 55°28' E 005°50'0 0.6
2019-Feb-15 05:00N 55°28' E 005°50'0 0.7
2019-Feb-15 04:29N 55°28' E 005°50'0 0.7
2019-Feb-15 03:59N 55°27' E 005°49'0 0.8
2019-Feb-15 03:30N 55°27' E 005°49'0 0.8
2019-Feb-15 03:00N 55°27' E 005°48'3 4.4
2019-Feb-15 02:25N 55°29' E 005°47'0 0.8
2019-Feb-15 01:56N 55°29' E 005°47'0 0.8
2019-Feb-15 01:30N 55°29' E 005°47'1 0.8
2019-Feb-15 00:26N 55°28' E 005°46'1 0.7
2019-Feb-14 23:39N 55°28' E 005°46'0 0.7
2019-Feb-14 23:24N 55°27' E 005°46'0 0.6
2019-Feb-14 22:49N 55°27' E 005°45'0 0.5
2019-Feb-14 22:19N 55°27' E 005°45'27 4.8
2019-Feb-14 16:45N 55°02' E 005°59'90 2.0
2019-Feb-12 20:15N 53°49' E 007°31'17 4.1
2019-Feb-12 16:02N 53°51' E 007°60'011.8
2019-Feb-12 15:59N 53°51' E 008°01'612.5
2019-Feb-12 15:30N 53°47' E 008°09'612.2
2019-Feb-12 15:00N 53°43' E 008°17'611.8
2019-Feb-12 14:31N 53°39' E 008°24'611.4
2019-Feb-12 14:00N 53°36' E 008°31'4 8.6
2019-Feb-12 13:30N 53°32' E 008°35'1 1.4
2019-Feb-12 13:00N 53°31' E 008°35'0 0.8
2019-Feb-12 12:28N 53°31' E 008°35'0 0.0
2019-Feb-12 12:00N 53°31' E 008°35'0 0.0
2019-Feb-12 11:30N 53°31' E 008°35'0 0.0
2019-Feb-12 11:00N 53°31' E 008°35'0 0.0
2019-Feb-12 10:30N 53°31' E 008°35'0 0.0
2019-Feb-12 10:00N 53°31' E 008°35'0 0.0
2019-Feb-12 09:30N 53°31' E 008°35'0 0.0
2019-Feb-12 09:00N 53°31' E 008°35'0 0.0
2019-Feb-12 08:30N 53°31' E 008°35'0 0.0
2019-Feb-12 08:00N 53°31' E 008°35'0 0.0
2019-Feb-12 07:30N 53°31' E 008°35'0 0.0
2019-Feb-12 07:00N 53°31' E 008°35'0 0.0
2019-Feb-12 06:30N 53°31' E 008°35'0 0.0
2019-Feb-12 06:00N 53°31' E 008°35'0 0.0
2019-Feb-12 05:30N 53°31' E 008°35'0 0.0
2019-Feb-12 05:00N 53°31' E 008°35'0 0.0
2019-Feb-12 04:30N 53°31' E 008°35'0 0.0
2019-Feb-12 04:00N 53°31' E 008°35'0 0.0
2019-Feb-12 03:30N 53°31' E 008°35'0 0.0
2019-Feb-12 03:00N 53°31' E 008°35'0 0.0
2019-Feb-12 02:30N 53°31' E 008°35'0 0.0
2019-Feb-12 02:00N 53°31' E 008°35'0 0.0
2019-Feb-12 01:30N 53°31' E 008°35'0 0.0
2019-Feb-12 01:00N 53°31' E 008°35'0 0.0
2019-Feb-12 00:30N 53°31' E 008°35'0 0.0
2019-Feb-12 00:00N 53°31' E 008°35'0 0.0
2019-Feb-11 23:30N 53°31' E 008°35'0 0.0
2019-Feb-11 23:00N 53°31' E 008°35'0 0.0
2019-Feb-11 22:30N 53°31' E 008°35'0 0.0
2019-Feb-11 22:00N 53°31' E 008°35'0 0.0
2019-Feb-11 21:30N 53°31' E 008°35'0 0.0
2019-Feb-11 21:00N 53°31' E 008°35'0 0.0
2019-Feb-11 20:30N 53°31' E 008°35'0 0.0
2019-Feb-11 20:00N 53°31' E 008°35'0 0.0
2019-Feb-11 19:30N 53°31' E 008°35'0 0.0
2019-Feb-11 19:00N 53°31' E 008°35'0 0.0
2019-Feb-11 18:30N 53°31' E 008°35'0 0.0
2019-Feb-11 18:00N 53°31' E 008°35'0 0.0
2019-Feb-11 17:30N 53°31' E 008°35'0 0.0
2019-Feb-11 17:00N 53°31' E 008°35'0 0.0
2019-Feb-11 16:30N 53°31' E 008°35'0 0.0
2019-Feb-11 16:00N 53°31' E 008°35'0 0.0
2019-Feb-11 15:30N 53°31' E 008°35'0 0.0
2019-Feb-11 15:00N 53°31' E 008°35'0 0.0
2019-Feb-11 14:30N 53°31' E 008°35'0 0.0
2019-Feb-11 14:00N 53°31' E 008°35'0 0.0
2019-Feb-11 13:30N 53°31' E 008°35'0 0.0
2019-Feb-11 13:00N 53°31' E 008°35'0 0.0
2019-Feb-11 12:30N 53°31' E 008°35'0 0.0
2019-Feb-11 12:00N 53°31' E 008°35'0 0.0
2019-Feb-11 11:30N 53°31' E 008°35'0 0.0
2019-Feb-11 11:00N 53°31' E 008°35'0 0.0
2019-Feb-11 10:30N 53°31' E 008°35'0 0.0
2019-Feb-11 10:00N 53°31' E 008°35'0 0.0
2019-Feb-11 09:30N 53°31' E 008°35'0 0.0
2019-Feb-11 09:00N 53°31' E 008°35'0 0.0
2019-Feb-11 08:30N 53°31' E 008°35'0 0.0
2019-Feb-11 08:00N 53°31' E 008°35'0 0.0
2019-Feb-11 07:30N 53°31' E 008°35'0 0.0
2019-Feb-11 07:00N 53°31' E 008°35'0 0.0
2019-Feb-11 06:30N 53°31' E 008°35'0 0.0
2019-Feb-11 06:00N 53°31' E 008°35'0 0.0
2019-Feb-11 05:30N 53°31' E 008°35'0 0.0
2019-Feb-11 05:00N 53°31' E 008°35'0 0.0
2019-Feb-11 04:30N 53°31' E 008°35'0 0.0
2019-Feb-11 04:00N 53°31' E 008°35'0 0.0
2019-Feb-11 03:30N 53°31' E 008°35'0 0.0
2019-Feb-11 03:00N 53°31' E 008°35'0 0.0
2019-Feb-11 02:27N 53°31' E 008°35'0 0.0
2019-Feb-11 02:00N 53°31' E 008°35'0 0.0
2019-Feb-11 01:30N 53°31' E 008°35'0 0.0
2019-Feb-11 00:58N 53°31' E 008°35'0 0.0
2019-Feb-11 00:26N 53°31' E 008°35'0 0.0
2019-Feb-10 23:59N 53°31' E 008°35'0 0.0
2019-Feb-10 23:29N 53°31' E 008°35'0 0.0
2019-Feb-10 22:58N 53°31' E 008°35'0 0.0
2019-Feb-10 22:29N 53°31' E 008°35'0 0.0
2019-Feb-10 21:59N 53°31' E 008°35'0 0.0
2019-Feb-10 21:29N 53°31' E 008°35'0 0.0
2019-Feb-10 21:00N 53°31' E 008°35'0 0.0
2019-Feb-10 20:30N 53°31' E 008°35'0 0.0
2019-Feb-10 20:00N 53°31' E 008°35'0 0.0
2019-Feb-10 19:30N 53°31' E 008°35'0 0.0
2019-Feb-10 19:00N 53°31' E 008°35'0 0.0
2019-Feb-10 18:30N 53°31' E 008°35'0 0.0
2019-Feb-10 18:00N 53°31' E 008°35'0 0.0
2019-Feb-10 17:30N 53°31' E 008°35'0 0.0
2019-Feb-10 17:00N 53°31' E 008°35'0 0.0
2019-Feb-10 16:30N 53°31' E 008°35'0 0.0
2019-Feb-10 16:00N 53°31' E 008°35'0 0.0
2019-Feb-10 15:30N 53°31' E 008°35'0 0.0
2019-Feb-10 15:00N 53°31' E 008°35'0 0.0
2019-Feb-10 14:30N 53°31' E 008°35'0 0.0
2019-Feb-10 14:00N 53°31' E 008°35'0 0.0
2019-Feb-10 13:30N 53°31' E 008°35'0 0.0
2019-Feb-10 13:00N 53°31' E 008°35'0 0.0
2019-Feb-10 12:30N 53°31' E 008°35'0 0.0
2019-Feb-10 12:00N 53°31' E 008°35'0 0.0
2019-Feb-10 11:30N 53°31' E 008°35'0 0.0
2019-Feb-10 11:00N 53°31' E 008°35'0 0.0
2019-Feb-10 10:30N 53°31' E 008°35'0 0.0
2019-Feb-10 10:00N 53°31' E 008°35'0 0.0
2019-Feb-10 09:30N 53°31' E 008°35'0 0.0
2019-Feb-10 09:00N 53°31' E 008°35'0 0.0
2019-Feb-10 08:30N 53°31' E 008°35'0 0.0
2019-Feb-10 08:00N 53°31' E 008°35'0 0.0
2019-Feb-10 07:30N 53°31' E 008°35'0 0.0
2019-Feb-10 07:00N 53°31' E 008°35'0 0.0
2019-Feb-10 06:30N 53°31' E 008°35'0 0.0
2019-Feb-10 06:00N 53°31' E 008°35'0 0.0
2019-Feb-10 05:30N 53°31' E 008°35'0 0.0
2019-Feb-10 05:00N 53°31' E 008°35'0 0.0
2019-Feb-10 04:30N 53°31' E 008°35'0 0.0
2019-Feb-10 04:00N 53°31' E 008°35'0 0.0
2019-Feb-10 03:30N 53°31' E 008°35'0 0.0
2019-Feb-10 03:00N 53°31' E 008°35'0 0.0
2019-Feb-10 02:30N 53°31' E 008°35'0 0.0
2019-Feb-10 02:00N 53°31' E 008°35'0 0.0
2019-Feb-10 01:30N 53°31' E 008°35'0 0.0
2019-Feb-10 01:00N 53°31' E 008°35'0 0.0
2019-Feb-10 00:30N 53°31' E 008°35'0 0.0
2019-Feb-09 23:57N 53°31' E 008°35'0 0.0
2019-Feb-09 23:30N 53°31' E 008°35'0 0.0
2019-Feb-09 23:00N 53°31' E 008°35'0 0.0
2019-Feb-09 22:30N 53°31' E 008°35'0 0.0
2019-Feb-09 22:00N 53°31' E 008°35'0 0.0
2019-Feb-09 21:30N 53°31' E 008°35'0 0.0
2019-Feb-09 21:00N 53°31' E 008°35'0 0.0
2019-Feb-09 20:30N 53°31' E 008°35'0 0.0
2019-Feb-09 20:00N 53°31' E 008°35'0 0.0
2019-Feb-09 19:30N 53°31' E 008°35'0 0.0
2019-Feb-09 19:00N 53°31' E 008°35'0 0.0
2019-Feb-09 18:30N 53°31' E 008°35'0 0.0
2019-Feb-09 18:00N 53°31' E 008°35'0 0.0
2019-Feb-09 17:30N 53°31' E 008°35'0 0.0
2019-Feb-09 17:00N 53°31' E 008°35'0 0.0
2019-Feb-09 16:30N 53°31' E 008°35'0 0.0
2019-Feb-09 16:00N 53°31' E 008°35'0 0.0
2019-Feb-09 15:30N 53°31' E 008°35'0 0.0
2019-Feb-09 15:00N 53°31' E 008°35'0 0.0
2019-Feb-09 14:27N 53°31' E 008°35'0 0.0
2019-Feb-09 14:00N 53°31' E 008°35'0 0.0
2019-Feb-09 13:30N 53°31' E 008°35'0 0.0
2019-Feb-09 13:00N 53°31' E 008°35'0 0.0
2019-Feb-09 12:30N 53°31' E 008°35'0 0.0
2019-Feb-09 12:00N 53°31' E 008°35'0 0.0
2019-Feb-09 11:30N 53°31' E 008°35'0 0.0
2019-Feb-09 11:00N 53°31' E 008°35'0 0.0
2019-Feb-09 10:30N 53°31' E 008°35'0 0.0
2019-Feb-09 10:00N 53°31' E 008°35'0 0.0
2019-Feb-09 09:30N 53°31' E 008°35'0 0.0
2019-Feb-09 09:00N 53°31' E 008°35'0 0.0
2019-Feb-09 08:30N 53°31' E 008°35'0 0.0
2019-Feb-09 08:00N 53°31' E 008°35'0 0.0
2019-Feb-09 07:30N 53°31' E 008°35'0 0.0
2019-Feb-09 07:00N 53°31' E 008°35'0 0.0
2019-Feb-09 06:30N 53°31' E 008°35'0 0.0
2019-Feb-09 06:00N 53°31' E 008°35'0 0.0
2019-Feb-09 05:30N 53°31' E 008°35'0 0.0
2019-Feb-09 05:00N 53°31' E 008°35'0 0.0
2019-Feb-09 04:29N 53°31' E 008°35'0 0.0
2019-Feb-09 03:59N 53°31' E 008°35'0 0.0
2019-Feb-09 03:30N 53°31' E 008°35'0 0.0
2019-Feb-09 02:56N 53°31' E 008°35'0 0.0
2019-Feb-09 02:22N 53°31' E 008°35'0 0.0
2019-Feb-09 01:58N 53°31' E 008°35'0 0.0
2019-Feb-09 01:25N 53°31' E 008°35'0 0.0
2019-Feb-09 00:58N 53°31' E 008°35'0 0.0
2019-Feb-09 00:28N 53°31' E 008°35'0 0.0
2019-Feb-09 00:00N 53°31' E 008°35'0 0.0
2019-Feb-08 23:30N 53°31' E 008°35'0 0.0
2019-Feb-08 23:00N 53°31' E 008°35'0 0.0
2019-Feb-08 22:30N 53°31' E 008°35'0 0.0
2019-Feb-08 22:00N 53°31' E 008°35'0 0.0
2019-Feb-08 21:30N 53°31' E 008°35'0 0.0
2019-Feb-08 21:00N 53°31' E 008°35'0 0.0
2019-Feb-08 20:30N 53°31' E 008°35'0 0.0
2019-Feb-08 20:00N 53°31' E 008°35'0 0.0
2019-Feb-08 19:30N 53°31' E 008°35'0 0.0
2019-Feb-08 19:00N 53°31' E 008°35'0 0.0
2019-Feb-08 18:30N 53°31' E 008°35'0 0.0
2019-Feb-08 18:00N 53°31' E 008°35'0 0.0
2019-Feb-08 17:30N 53°31' E 008°35'0 0.0
2019-Feb-08 17:00N 53°31' E 008°35'0 0.0
2019-Feb-08 16:30N 53°31' E 008°35'0 0.0
2019-Feb-08 16:00N 53°31' E 008°35'0 0.0
2019-Feb-08 15:30N 53°31' E 008°35'0 0.0
2019-Feb-08 15:00N 53°31' E 008°35'0 0.0
2019-Feb-08 14:30N 53°31' E 008°35'0 0.0
2019-Feb-08 14:00N 53°31' E 008°35'0 0.0
2019-Feb-08 13:30N 53°31' E 008°35'0 0.0
2019-Feb-08 13:00N 53°31' E 008°35'0 0.0
2019-Feb-08 12:30N 53°31' E 008°35'0 0.0
2019-Feb-08 12:00N 53°31' E 008°35'0 0.0
2019-Feb-08 11:30N 53°31' E 008°35'0 0.0
2019-Feb-08 11:00N 53°31' E 008°35'0 0.0
2019-Feb-08 10:30N 53°31' E 008°35'0 0.0
2019-Feb-08 10:00N 53°31' E 008°35'0 0.0
2019-Feb-08 09:30N 53°31' E 008°35'0 0.0
2019-Feb-08 09:00N 53°31' E 008°35'0 0.0
2019-Feb-08 08:30N 53°31' E 008°35'0 0.0
2019-Feb-08 08:00N 53°31' E 008°35'0 0.0
2019-Feb-08 07:30N 53°31' E 008°35'0 0.0
2019-Feb-08 07:00N 53°31' E 008°35'0 0.0
2019-Feb-08 06:30N 53°31' E 008°35'0 0.0
2019-Feb-08 06:00N 53°31' E 008°35'0 0.0
2019-Feb-08 05:30N 53°31' E 008°35'0 0.0
2019-Feb-08 04:59N 53°31' E 008°35'0 0.0
2019-Feb-08 04:25N 53°31' E 008°35'0 0.0
2019-Feb-08 04:00N 53°31' E 008°35'0 0.0
2019-Feb-08 03:30N 53°31' E 008°35'0 0.0
2019-Feb-08 02:59N 53°31' E 008°35'0 0.0
2019-Feb-08 02:29N 53°31' E 008°35'0 0.0
2019-Feb-08 01:59N 53°31' E 008°35'0 0.0
2019-Feb-08 01:29N 53°31' E 008°35'0 0.0
2019-Feb-08 00:59N 53°31' E 008°35'0 0.0
2019-Feb-08 00:29N 53°31' E 008°35'0 0.0
2019-Feb-07 23:59N 53°31' E 008°35'0 0.0
2019-Feb-07 23:29N 53°31' E 008°35'0 0.0
2019-Feb-07 22:59N 53°31' E 008°35'0 0.0
2019-Feb-07 22:29N 53°31' E 008°35'0 0.0
2019-Feb-07 21:59N 53°31' E 008°35'0 0.0
2019-Feb-07 21:29N 53°31' E 008°35'0 0.0
2019-Feb-07 20:59N 53°31' E 008°35'0 0.0
2019-Feb-07 20:29N 53°31' E 008°35'0 0.0
2019-Feb-07 19:59N 53°31' E 008°35'0 0.0
2019-Feb-07 19:29N 53°31' E 008°35'0 0.0
2019-Feb-07 18:59N 53°31' E 008°35'0 0.0
2019-Feb-07 18:29N 53°31' E 008°35'0 0.0
2019-Feb-07 17:58N 53°31' E 008°35'0 0.0
2019-Feb-07 17:28N 53°31' E 008°35'0 0.0
2019-Feb-07 16:58N 53°31' E 008°35'0 0.0
2019-Feb-07 16:30N 53°31' E 008°35'0 0.0
2019-Feb-07 16:00N 53°31' E 008°35'0 0.0
2019-Feb-07 15:30N 53°31' E 008°35'0 0.0
2019-Feb-07 15:00N 53°31' E 008°35'0 0.0
2019-Feb-07 14:30N 53°31' E 008°35'0 0.0
2019-Feb-07 14:00N 53°31' E 008°35'0 0.0
2019-Feb-07 13:30N 53°31' E 008°35'0 0.0
2019-Feb-07 13:00N 53°31' E 008°35'0 0.0
2019-Feb-07 12:30N 53°31' E 008°35'0 0.0
2019-Feb-07 12:00N 53°31' E 008°35'0 0.0
2019-Feb-07 11:29N 53°31' E 008°35'0 0.0
2019-Feb-07 10:59N 53°31' E 008°35'0 0.0
2019-Feb-07 10:29N 53°31' E 008°35'0 0.0
2019-Feb-07 09:59N 53°31' E 008°35'0 0.0
2019-Feb-07 09:29N 53°31' E 008°35'0 0.0
2019-Feb-07 08:59N 53°31' E 008°35'0 0.0
2019-Feb-07 08:29N 53°31' E 008°35'0 0.0
2019-Feb-07 07:59N 53°31' E 008°35'0 0.0
2019-Feb-07 07:29N 53°31' E 008°35'0 0.0
2019-Feb-07 06:59N 53°31' E 008°35'0 0.0
2019-Feb-07 06:29N 53°31' E 008°35'0 0.0
2019-Feb-07 05:59N 53°31' E 008°35'0 0.0
2019-Feb-07 05:29N 53°31' E 008°35'0 0.0
2019-Feb-07 04:59N 53°31' E 008°35'0 0.0
2019-Feb-07 04:29N 53°31' E 008°35'0 0.0
2019-Feb-07 03:58N 53°31' E 008°35'0 0.0
2019-Feb-07 03:28N 53°31' E 008°35'0 0.0
2019-Feb-07 02:58N 53°31' E 008°35'0 0.0
2019-Feb-07 02:28N 53°31' E 008°35'0 0.0
2019-Feb-07 01:58N 53°31' E 008°35'0 0.0
2019-Feb-07 01:28N 53°31' E 008°35'0 0.0
2019-Feb-07 00:58N 53°31' E 008°35'0 0.0
2019-Feb-07 00:28N 53°31' E 008°35'0 0.0
2019-Feb-06 23:58N 53°31' E 008°35'0 0.0
2019-Feb-06 23:28N 53°31' E 008°35'0 0.0
2019-Feb-06 22:58N 53°31' E 008°35'0 0.0
2019-Feb-06 22:28N 53°31' E 008°35'0 0.0
2019-Feb-06 21:58N 53°31' E 008°35'0 0.0
2019-Feb-06 21:28N 53°31' E 008°35'0 0.0
2019-Feb-06 20:58N 53°31' E 008°35'0 0.0
2019-Feb-06 20:28N 53°31' E 008°35'0 0.0
2019-Feb-06 19:58N 53°31' E 008°35'0 0.0
2019-Feb-06 19:30N 53°31' E 008°35'0 0.0
2019-Feb-06 19:00N 53°31' E 008°35'0 0.0
2019-Feb-06 18:30N 53°31' E 008°35'0 0.0
2019-Feb-06 18:00N 53°31' E 008°35'0 0.0
2019-Feb-06 17:27N 53°31' E 008°35'0 0.0
2019-Feb-06 16:57N 53°31' E 008°35'0 0.0
2019-Feb-06 16:30N 53°31' E 008°35'0 0.0
2019-Feb-06 16:00N 53°31' E 008°35'0 0.0
2019-Feb-06 15:30N 53°31' E 008°35'0 0.0
2019-Feb-06 15:00N 53°31' E 008°35'0 0.0
2019-Feb-06 14:30N 53°31' E 008°35'0 0.0
2019-Feb-06 13:57N 53°31' E 008°35'0 0.0
2019-Feb-06 13:30N 53°31' E 008°35'0 0.0
2019-Feb-06 13:00N 53°31' E 008°35'0 0.0
2019-Feb-06 12:24N 53°31' E 008°35'0 0.0
2019-Feb-06 12:00N 53°31' E 008°35'0 0.0
2019-Feb-06 11:30N 53°31' E 008°35'0 0.0
2019-Feb-06 11:00N 53°31' E 008°35'0 0.0
2019-Feb-06 10:30N 53°31' E 008°35'0 0.0
2019-Feb-06 09:55N 53°31' E 008°35'0 0.0
2019-Feb-06 09:28N 53°31' E 008°35'0 0.0
2019-Feb-06 08:58N 53°31' E 008°35'0 0.0
2019-Feb-06 08:28N 53°31' E 008°35'0 0.0
2019-Feb-06 07:58N 53°31' E 008°35'0 0.0
2019-Feb-06 07:28N 53°31' E 008°35'0 0.0
2019-Feb-06 06:58N 53°31' E 008°35'0 0.0
2019-Feb-06 06:28N 53°31' E 008°35'0 0.0
2019-Feb-06 05:58N 53°31' E 008°35'0 0.0
2019-Feb-06 05:28N 53°31' E 008°35'0 0.0
2019-Feb-06 05:00N 53°31' E 008°35'0 0.0
2019-Feb-06 04:30N 53°31' E 008°35'0 0.0
2019-Feb-06 04:00N 53°31' E 008°35'0 0.0
2019-Feb-06 03:30N 53°31' E 008°35'0 0.0
2019-Feb-06 03:00N 53°31' E 008°35'0 0.0
2019-Feb-06 02:30N 53°31' E 008°35'0 0.0
2019-Feb-06 02:00N 53°31' E 008°35'0 0.0
2019-Feb-06 01:30N 53°31' E 008°35'0 0.0
2019-Feb-06 01:00N 53°31' E 008°35'0 0.0
2019-Feb-06 00:30N 53°31' E 008°35'0 0.0
2019-Feb-06 00:00N 53°31' E 008°35'  
Track history (hours):
 
Tides and Currents Weather Stations Pressure Air Temp Water Temp Dewpoint Dewpoint Depression Visibility Wind Speed Wind Dir Waves Ship Positions

Oceanographic research ship Solea (Germany)

Detailed information on ship capabilities available from University of Delaware's Ocean Information Center.

Last reported at 2019-Feb-15 23:56 UTC. Time now 2019-Feb-16 02:59 UTC.
Position N 55°51' E 005°50'.

Length 72 m; draft 5.2 m.

Type: Law enforcement. MMSI: 218692000.

Date/timePositionNaut miles runAvg speedWind from/ knotsBaromVisibWave heightAir tempDewpointWater temp
2019-Feb-15 23:56N 55°51' E 005°50'1 1.7
2019-Feb-15 23:06N 55°52' E 005°52'0 1.6
2019-Feb-15 23:00N 55°52' E 005°52'1 1.6
2019-Feb-15 22:31N 55°53' E 005°53'1 1.5
2019-Feb-15 21:59N 55°54' E 005°53'1 1.6
2019-Feb-15 21:30N 55°54' E 005°53'1 1.6
2019-Feb-15 21:01N 55°55' E 005°53'1 1.4
2019-Feb-15 20:30N 55°56' E 005°54'0 1.0
2019-Feb-15 19:59N 55°55' E 005°53'1 1.0
2019-Feb-15 19:30N 55°55' E 005°53'0 1.0
2019-Feb-15 19:00N 55°54' E 005°53'0 0.8
2019-Feb-15 18:30N 55°54' E 005°53'0 0.9
2019-Feb-15 18:00N 55°53' E 005°53'0 0.8
2019-Feb-15 17:30N 55°53' E 005°53'0 0.8
2019-Feb-15 17:01N 55°53' E 005°53'0 0.7
2019-Feb-15 16:30N 55°52' E 005°53'0 0.9
2019-Feb-15 16:01N 55°52' E 005°52'1 1.1
2019-Feb-15 15:30N 55°52' E 005°51'1 1.5
2019-Feb-15 15:00N 55°51' E 005°50'4 7.6
2019-Feb-15 14:30N 55°55' E 005°48'510.0
2019-Feb-15 14:00N 55°60' E 005°45'2 3.6
2019-Feb-15 13:30N 55°58' E 005°43'0 0.5
2019-Feb-15 13:00N 55°58' E 005°43'2 3.2
2019-Feb-15 12:30N 55°56' E 005°42'0 0.8
2019-Feb-15 11:59N 55°56' E 005°42'4 8.7
2019-Feb-15 11:30N 55°59' E 005°47'612.7
2019-Feb-15 11:00N 55°53' E 005°47'713.6
2019-Feb-15 10:29N 55°46' E 005°49'713.6
2019-Feb-15 10:00N 55°39' E 005°51'610.9
2019-Feb-15 09:30N 55°34' E 005°50'510.3
2019-Feb-15 08:58N 55°28' E 005°50'0 0.8
2019-Feb-15 08:30N 55°28' E 005°50'0 0.9
2019-Feb-15 08:00N 55°27' E 005°50'0 0.6
2019-Feb-15 07:27N 55°27' E 005°50'2 3.6
2019-Feb-15 06:53N 55°29' E 005°51'0 0.7
2019-Feb-15 06:30N 55°29' E 005°51'0 0.7
2019-Feb-15 06:00N 55°28' E 005°51'0 0.6
2019-Feb-15 05:30N 55°28' E 005°50'0 0.6
2019-Feb-15 05:00N 55°28' E 005°50'0 0.7
2019-Feb-15 04:29N 55°28' E 005°50'0 0.7
2019-Feb-15 03:59N 55°27' E 005°49'0 0.8
2019-Feb-15 03:30N 55°27' E 005°49'0 0.8
2019-Feb-15 03:00N 55°27' E 005°48'3 4.4
2019-Feb-15 02:25N 55°29' E 005°47'0 0.8
2019-Feb-15 01:56N 55°29' E 005°47'0 0.8
2019-Feb-15 01:30N 55°29' E 005°47'1 0.8
2019-Feb-15 00:26N 55°28' E 005°46'1 0.7
2019-Feb-14 23:39N 55°28' E 005°46'0 0.7
2019-Feb-14 23:24N 55°27' E 005°46'0 0.6
2019-Feb-14 22:49N 55°27' E 005°45'0 0.5
2019-Feb-14 22:19N 55°27' E 005°45'27 4.8
2019-Feb-14 16:45N 55°02' E 005°59'90 2.0
2019-Feb-12 20:15N 53°49' E 007°31'17 4.1
2019-Feb-12 16:02N 53°51' E 007°60'011.8
2019-Feb-12 15:59N 53°51' E 008°01'612.5
2019-Feb-12 15:30N 53°47' E 008°09'612.2
2019-Feb-12 15:00N 53°43' E 008°17'611.8
2019-Feb-12 14:31N 53°39' E 008°24'611.4
2019-Feb-12 14:00N 53°36' E 008°31'4 8.6
2019-Feb-12 13:30N 53°32' E 008°35'1 1.4
2019-Feb-12 13:00N 53°31' E 008°35'0 0.8
2019-Feb-12 12:28N 53°31' E 008°35'0 0.0
2019-Feb-12 12:00N 53°31' E 008°35'0 0.0
2019-Feb-12 11:30N 53°31' E 008°35'0 0.0
2019-Feb-12 11:00N 53°31' E 008°35'0 0.0
2019-Feb-12 10:30N 53°31' E 008°35'0 0.0
2019-Feb-12 10:00N 53°31' E 008°35'0 0.0
2019-Feb-12 09:30N 53°31' E 008°35'0 0.0
2019-Feb-12 09:00N 53°31' E 008°35'0 0.0
2019-Feb-12 08:30N 53°31' E 008°35'0 0.0
2019-Feb-12 08:00N 53°31' E 008°35'0 0.0
2019-Feb-12 07:30N 53°31' E 008°35'0 0.0
2019-Feb-12 07:00N 53°31' E 008°35'0 0.0
2019-Feb-12 06:30N 53°31' E 008°35'0 0.0
2019-Feb-12 06:00N 53°31' E 008°35'0 0.0
2019-Feb-12 05:30N 53°31' E 008°35'0 0.0
2019-Feb-12 05:00N 53°31' E 008°35'0 0.0
2019-Feb-12 04:30N 53°31' E 008°35'0 0.0
2019-Feb-12 04:00N 53°31' E 008°35'0 0.0
2019-Feb-12 03:30N 53°31' E 008°35'0 0.0
2019-Feb-12 03:00N 53°31' E 008°35'0 0.0
2019-Feb-12 02:30N 53°31' E 008°35'0 0.0
2019-Feb-12 02:00N 53°31' E 008°35'0 0.0
2019-Feb-12 01:30N 53°31' E 008°35'0 0.0
2019-Feb-12 01:00N 53°31' E 008°35'0 0.0
2019-Feb-12 00:30N 53°31' E 008°35'0 0.0
2019-Feb-12 00:00N 53°31' E 008°35'0 0.0
2019-Feb-11 23:30N 53°31' E 008°35'0 0.0
2019-Feb-11 23:00N 53°31' E 008°35'0 0.0
2019-Feb-11 22:30N 53°31' E 008°35'0 0.0
2019-Feb-11 22:00N 53°31' E 008°35'0 0.0
2019-Feb-11 21:30N 53°31' E 008°35'0 0.0
2019-Feb-11 21:00N 53°31' E 008°35'0 0.0
2019-Feb-11 20:30N 53°31' E 008°35'0 0.0
2019-Feb-11 20:00N 53°31' E 008°35'0 0.0
2019-Feb-11 19:30N 53°31' E 008°35'0 0.0
2019-Feb-11 19:00N 53°31' E 008°35'0 0.0
2019-Feb-11 18:30N 53°31' E 008°35'0 0.0
2019-Feb-11 18:00N 53°31' E 008°35'0 0.0
2019-Feb-11 17:30N 53°31' E 008°35'0 0.0
2019-Feb-11 17:00N 53°31' E 008°35'0 0.0
2019-Feb-11 16:30N 53°31' E 008°35'0 0.0
2019-Feb-11 16:00N 53°31' E 008°35'0 0.0
2019-Feb-11 15:30N 53°31' E 008°35'0 0.0
2019-Feb-11 15:00N 53°31' E 008°35'0 0.0
2019-Feb-11 14:30N 53°31' E 008°35'0 0.0
2019-Feb-11 14:00N 53°31' E 008°35'0 0.0
2019-Feb-11 13:30N 53°31' E 008°35'0 0.0
2019-Feb-11 13:00N 53°31' E 008°35'0 0.0
2019-Feb-11 12:30N 53°31' E 008°35'0 0.0
2019-Feb-11 12:00N 53°31' E 008°35'0 0.0
2019-Feb-11 11:30N 53°31' E 008°35'0 0.0
2019-Feb-11 11:00N 53°31' E 008°35'0 0.0
2019-Feb-11 10:30N 53°31' E 008°35'0 0.0
2019-Feb-11 10:00N 53°31' E 008°35'0 0.0
2019-Feb-11 09:30N 53°31' E 008°35'0 0.0
2019-Feb-11 09:00N 53°31' E 008°35'0 0.0
2019-Feb-11 08:30N 53°31' E 008°35'0 0.0
2019-Feb-11 08:00N 53°31' E 008°35'0 0.0
2019-Feb-11 07:30N 53°31' E 008°35'0 0.0
2019-Feb-11 07:00N 53°31' E 008°35'0 0.0
2019-Feb-11 06:30N 53°31' E 008°35'0 0.0
2019-Feb-11 06:00N 53°31' E 008°35'0 0.0
2019-Feb-11 05:30N 53°31' E 008°35'0 0.0
2019-Feb-11 05:00N 53°31' E 008°35'0 0.0
2019-Feb-11 04:30N 53°31' E 008°35'0 0.0
2019-Feb-11 04:00N 53°31' E 008°35'0 0.0
2019-Feb-11 03:30N 53°31' E 008°35'0 0.0
2019-Feb-11 03:00N 53°31' E 008°35'0 0.0
2019-Feb-11 02:27N 53°31' E 008°35'0 0.0
2019-Feb-11 02:00N 53°31' E 008°35'0 0.0
2019-Feb-11 01:30N 53°31' E 008°35'0 0.0
2019-Feb-11 00:58N 53°31' E 008°35'0 0.0
2019-Feb-11 00:26N 53°31' E 008°35'0 0.0
2019-Feb-10 23:59N 53°31' E 008°35'0 0.0
2019-Feb-10 23:29N 53°31' E 008°35'0 0.0
2019-Feb-10 22:58N 53°31' E 008°35'0 0.0
2019-Feb-10 22:29N 53°31' E 008°35'0 0.0
2019-Feb-10 21:59N 53°31' E 008°35'0 0.0
2019-Feb-10 21:29N 53°31' E 008°35'0 0.0
2019-Feb-10 21:00N 53°31' E 008°35'0 0.0
2019-Feb-10 20:30N 53°31' E 008°35'0 0.0
2019-Feb-10 20:00N 53°31' E 008°35'0 0.0
2019-Feb-10 19:30N 53°31' E 008°35'0 0.0
2019-Feb-10 19:00N 53°31' E 008°35'0 0.0
2019-Feb-10 18:30N 53°31' E 008°35'0 0.0
2019-Feb-10 18:00N 53°31' E 008°35'0 0.0
2019-Feb-10 17:30N 53°31' E 008°35'0 0.0
2019-Feb-10 17:00N 53°31' E 008°35'0 0.0
2019-Feb-10 16:30N 53°31' E 008°35'0 0.0
2019-Feb-10 16:00N 53°31' E 008°35'0 0.0
2019-Feb-10 15:30N 53°31' E 008°35'0 0.0
2019-Feb-10 15:00N 53°31' E 008°35'0 0.0
2019-Feb-10 14:30N 53°31' E 008°35'0 0.0
2019-Feb-10 14:00N 53°31' E 008°35'0 0.0
2019-Feb-10 13:30N 53°31' E 008°35'0 0.0
2019-Feb-10 13:00N 53°31' E 008°35'0 0.0
2019-Feb-10 12:30N 53°31' E 008°35'0 0.0
2019-Feb-10 12:00N 53°31' E 008°35'0 0.0
2019-Feb-10 11:30N 53°31' E 008°35'0 0.0
2019-Feb-10 11:00N 53°31' E 008°35'0 0.0
2019-Feb-10 10:30N 53°31' E 008°35'0 0.0
2019-Feb-10 10:00N 53°31' E 008°35'0 0.0
2019-Feb-10 09:30N 53°31' E 008°35'0 0.0
2019-Feb-10 09:00N 53°31' E 008°35'0 0.0
2019-Feb-10 08:30N 53°31' E 008°35'0 0.0
2019-Feb-10 08:00N 53°31' E 008°35'0 0.0
2019-Feb-10 07:30N 53°31' E 008°35'0 0.0
2019-Feb-10 07:00N 53°31' E 008°35'0 0.0
2019-Feb-10 06:30N 53°31' E 008°35'0 0.0
2019-Feb-10 06:00N 53°31' E 008°35'0 0.0
2019-Feb-10 05:30N 53°31' E 008°35'0 0.0
2019-Feb-10 05:00N 53°31' E 008°35'0 0.0
2019-Feb-10 04:30N 53°31' E 008°35'0 0.0
2019-Feb-10 04:00N 53°31' E 008°35'0 0.0
2019-Feb-10 03:30N 53°31' E 008°35'0 0.0
2019-Feb-10 03:00N 53°31' E 008°35'0 0.0
2019-Feb-10 02:30N 53°31' E 008°35'0 0.0
2019-Feb-10 02:00N 53°31' E 008°35'0 0.0
2019-Feb-10 01:30N 53°31' E 008°35'0 0.0
2019-Feb-10 01:00N 53°31' E 008°35'0 0.0
2019-Feb-10 00:30N 53°31' E 008°35'0 0.0
2019-Feb-09 23:57N 53°31' E 008°35'0 0.0
2019-Feb-09 23:30N 53°31' E 008°35'0 0.0
2019-Feb-09 23:00N 53°31' E 008°35'0 0.0
2019-Feb-09 22:30N 53°31' E 008°35'0 0.0
2019-Feb-09 22:00N 53°31' E 008°35'0 0.0
2019-Feb-09 21:30N 53°31' E 008°35'0 0.0
2019-Feb-09 21:00N 53°31' E 008°35'0 0.0
2019-Feb-09 20:30N 53°31' E 008°35'0 0.0
2019-Feb-09 20:00N 53°31' E 008°35'0 0.0
2019-Feb-09 19:30N 53°31' E 008°35'0 0.0
2019-Feb-09 19:00N 53°31' E 008°35'0 0.0
2019-Feb-09 18:30N 53°31' E 008°35'0 0.0
2019-Feb-09 18:00N 53°31' E 008°35'0 0.0
2019-Feb-09 17:30N 53°31' E 008°35'0 0.0
2019-Feb-09 17:00N 53°31' E 008°35'0 0.0
2019-Feb-09 16:30N 53°31' E 008°35'0 0.0
2019-Feb-09 16:00N 53°31' E 008°35'0 0.0
2019-Feb-09 15:30N 53°31' E 008°35'0 0.0
2019-Feb-09 15:00N 53°31' E 008°35'0 0.0
2019-Feb-09 14:27N 53°31' E 008°35'0 0.0
2019-Feb-09 14:00N 53°31' E 008°35'0 0.0
2019-Feb-09 13:30N 53°31' E 008°35'0 0.0
2019-Feb-09 13:00N 53°31' E 008°35'0 0.0
2019-Feb-09 12:30N 53°31' E 008°35'0 0.0
2019-Feb-09 12:00N 53°31' E 008°35'0 0.0
2019-Feb-09 11:30N 53°31' E 008°35'0 0.0
2019-Feb-09 11:00N 53°31' E 008°35'0 0.0
2019-Feb-09 10:30N 53°31' E 008°35'0 0.0
2019-Feb-09 10:00N 53°31' E 008°35'0 0.0
2019-Feb-09 09:30N 53°31' E 008°35'0 0.0
2019-Feb-09 09:00N 53°31' E 008°35'0 0.0
2019-Feb-09 08:30N 53°31' E 008°35'0 0.0
2019-Feb-09 08:00N 53°31' E 008°35'0 0.0
2019-Feb-09 07:30N 53°31' E 008°35'0 0.0
2019-Feb-09 07:00N 53°31' E 008°35'0 0.0
2019-Feb-09 06:30N 53°31' E 008°35'0 0.0
2019-Feb-09 06:00N 53°31' E 008°35'0 0.0
2019-Feb-09 05:30N 53°31' E 008°35'0 0.0
2019-Feb-09 05:00N 53°31' E 008°35'0 0.0
2019-Feb-09 04:29N 53°31' E 008°35'0 0.0
2019-Feb-09 03:59N 53°31' E 008°35'0 0.0
2019-Feb-09 03:30N 53°31' E 008°35'0 0.0
2019-Feb-09 02:56N 53°31' E 008°35'0 0.0
2019-Feb-09 02:22N 53°31' E 008°35'0 0.0
2019-Feb-09 01:58N 53°31' E 008°35'0 0.0
2019-Feb-09 01:25N 53°31' E 008°35'0 0.0
2019-Feb-09 00:58N 53°31' E 008°35'0 0.0
2019-Feb-09 00:28N 53°31' E 008°35'0 0.0
2019-Feb-09 00:00N 53°31' E 008°35'0 0.0
2019-Feb-08 23:30N 53°31' E 008°35'0 0.0
2019-Feb-08 23:00N 53°31' E 008°35'0 0.0
2019-Feb-08 22:30N 53°31' E 008°35'0 0.0
2019-Feb-08 22:00N 53°31' E 008°35'0 0.0
2019-Feb-08 21:30N 53°31' E 008°35'0 0.0
2019-Feb-08 21:00N 53°31' E 008°35'0 0.0
2019-Feb-08 20:30N 53°31' E 008°35'0 0.0
2019-Feb-08 20:00N 53°31' E 008°35'0 0.0
2019-Feb-08 19:30N 53°31' E 008°35'0 0.0
2019-Feb-08 19:00N 53°31' E 008°35'0 0.0
2019-Feb-08 18:30N 53°31' E 008°35'0 0.0
2019-Feb-08 18:00N 53°31' E 008°35'0 0.0
2019-Feb-08 17:30N 53°31' E 008°35'0 0.0
2019-Feb-08 17:00N 53°31' E 008°35'0 0.0
2019-Feb-08 16:30N 53°31' E 008°35'0 0.0
2019-Feb-08 16:00N 53°31' E 008°35'0 0.0
2019-Feb-08 15:30N 53°31' E 008°35'0 0.0
2019-Feb-08 15:00N 53°31' E 008°35'0 0.0
2019-Feb-08 14:30N 53°31' E 008°35'0 0.0
2019-Feb-08 14:00N 53°31' E 008°35'0 0.0
2019-Feb-08 13:30N 53°31' E 008°35'0 0.0
2019-Feb-08 13:00N 53°31' E 008°35'0 0.0
2019-Feb-08 12:30N 53°31' E 008°35'0 0.0
2019-Feb-08 12:00N 53°31' E 008°35'0 0.0
2019-Feb-08 11:30N 53°31' E 008°35'0 0.0
2019-Feb-08 11:00N 53°31' E 008°35'0 0.0
2019-Feb-08 10:30N 53°31' E 008°35'0 0.0
2019-Feb-08 10:00N 53°31' E 008°35'0 0.0
2019-Feb-08 09:30N 53°31' E 008°35'0 0.0
2019-Feb-08 09:00N 53°31' E 008°35'0 0.0
2019-Feb-08 08:30N 53°31' E 008°35'0 0.0
2019-Feb-08 08:00N 53°31' E 008°35'0 0.0
2019-Feb-08 07:30N 53°31' E 008°35'0 0.0
2019-Feb-08 07:00N 53°31' E 008°35'0 0.0
2019-Feb-08 06:30N 53°31' E 008°35'0 0.0
2019-Feb-08 06:00N 53°31' E 008°35'0 0.0
2019-Feb-08 05:30N 53°31' E 008°35'0 0.0
2019-Feb-08 04:59N 53°31' E 008°35'0 0.0
2019-Feb-08 04:25N 53°31' E 008°35'0 0.0
2019-Feb-08 04:00N 53°31' E 008°35'0 0.0
2019-Feb-08 03:30N 53°31' E 008°35'0 0.0
2019-Feb-08 02:59N 53°31' E 008°35'0 0.0
2019-Feb-08 02:29N 53°31' E 008°35'0 0.0
2019-Feb-08 01:59N 53°31' E 008°35'0 0.0
2019-Feb-08 01:29N 53°31' E 008°35'0 0.0
2019-Feb-08 00:59N 53°31' E 008°35'0 0.0
2019-Feb-08 00:29N 53°31' E 008°35'0 0.0
2019-Feb-07 23:59N 53°31' E 008°35'0 0.0
2019-Feb-07 23:29N 53°31' E 008°35'0 0.0
2019-Feb-07 22:59N 53°31' E 008°35'0 0.0
2019-Feb-07 22:29N 53°31' E 008°35'0 0.0
2019-Feb-07 21:59N 53°31' E 008°35'0 0.0
2019-Feb-07 21:29N 53°31' E 008°35'0 0.0
2019-Feb-07 20:59N 53°31' E 008°35'0 0.0
2019-Feb-07 20:29N 53°31' E 008°35'0 0.0
2019-Feb-07 19:59N 53°31' E 008°35'0 0.0
2019-Feb-07 19:29N 53°31' E 008°35'0 0.0
2019-Feb-07 18:59N 53°31' E 008°35'0 0.0
2019-Feb-07 18:29N 53°31' E 008°35'0 0.0
2019-Feb-07 17:58N 53°31' E 008°35'0 0.0
2019-Feb-07 17:28N 53°31' E 008°35'0 0.0
2019-Feb-07 16:58N 53°31' E 008°35'0 0.0
2019-Feb-07 16:30N 53°31' E 008°35'0 0.0
2019-Feb-07 16:00N 53°31' E 008°35'0 0.0
2019-Feb-07 15:30N 53°31' E 008°35'0 0.0
2019-Feb-07 15:00N 53°31' E 008°35'0 0.0
2019-Feb-07 14:30N 53°31' E 008°35'0 0.0
2019-Feb-07 14:00N 53°31' E 008°35'0 0.0
2019-Feb-07 13:30N 53°31' E 008°35'0 0.0
2019-Feb-07 13:00N 53°31' E 008°35'0 0.0
2019-Feb-07 12:30N 53°31' E 008°35'0 0.0
2019-Feb-07 12:00N 53°31' E 008°35'0 0.0
2019-Feb-07 11:29N 53°31' E 008°35'0 0.0
2019-Feb-07 10:59N 53°31' E 008°35'0 0.0
2019-Feb-07 10:29N 53°31' E 008°35'0 0.0
2019-Feb-07 09:59N 53°31' E 008°35'0 0.0
2019-Feb-07 09:29N 53°31' E 008°35'0 0.0
2019-Feb-07 08:59N 53°31' E 008°35'0 0.0
2019-Feb-07 08:29N 53°31' E 008°35'0 0.0
2019-Feb-07 07:59N 53°31' E 008°35'0 0.0
2019-Feb-07 07:29N 53°31' E 008°35'0 0.0
2019-Feb-07 06:59N 53°31' E 008°35'0 0.0
2019-Feb-07 06:29N 53°31' E 008°35'0 0.0
2019-Feb-07 05:59N 53°31' E 008°35'0 0.0
2019-Feb-07 05:29N 53°31' E 008°35'0 0.0
2019-Feb-07 04:59N 53°31' E 008°35'0 0.0
2019-Feb-07 04:29N 53°31' E 008°35'0 0.0
2019-Feb-07 03:58N 53°31' E 008°35'0 0.0
2019-Feb-07 03:28N 53°31' E 008°35'0 0.0
2019-Feb-07 02:58N 53°31' E 008°35'0 0.0
2019-Feb-07 02:28N 53°31' E 008°35'0 0.0
2019-Feb-07 01:58N 53°31' E 008°35'0 0.0
2019-Feb-07 01:28N 53°31' E 008°35'0 0.0
2019-Feb-07 00:58N 53°31' E 008°35'0 0.0
2019-Feb-07 00:28N 53°31' E 008°35'0 0.0
2019-Feb-06 23:58N 53°31' E 008°35'0 0.0
2019-Feb-06 23:28N 53°31' E 008°35'0 0.0
2019-Feb-06 22:58N 53°31' E 008°35'0 0.0
2019-Feb-06 22:28N 53°31' E 008°35'0 0.0
2019-Feb-06 21:58N 53°31' E 008°35'0 0.0
2019-Feb-06 21:28N 53°31' E 008°35'0 0.0
2019-Feb-06 20:58N 53°31' E 008°35'0 0.0
2019-Feb-06 20:28N 53°31' E 008°35'0 0.0
2019-Feb-06 19:58N 53°31' E 008°35'0 0.0
2019-Feb-06 19:30N 53°31' E 008°35'0 0.0
2019-Feb-06 19:00N 53°31' E 008°35'0 0.0
2019-Feb-06 18:30N 53°31' E 008°35'0 0.0
2019-Feb-06 18:00N 53°31' E 008°35'0 0.0
2019-Feb-06 17:27N 53°31' E 008°35'0 0.0
2019-Feb-06 16:57N 53°31' E 008°35'0 0.0
2019-Feb-06 16:30N 53°31' E 008°35'0 0.0
2019-Feb-06 16:00N 53°31' E 008°35'0 0.0
2019-Feb-06 15:30N 53°31' E 008°35'0 0.0
2019-Feb-06 15:00N 53°31' E 008°35'0 0.0
2019-Feb-06 14:30N 53°31' E 008°35'0 0.0
2019-Feb-06 13:57N 53°31' E 008°35'0 0.0
2019-Feb-06 13:30N 53°31' E 008°35'0 0.0
2019-Feb-06 13:00N 53°31' E 008°35'0 0.0
2019-Feb-06 12:24N 53°31' E 008°35'0 0.0
2019-Feb-06 12:00N 53°31' E 008°35'0 0.0
2019-Feb-06 11:30N 53°31' E 008°35'0 0.0
2019-Feb-06 11:00N 53°31' E 008°35'0 0.0
2019-Feb-06 10:30N 53°31' E 008°35'0 0.0
2019-Feb-06 09:55N 53°31' E 008°35'0 0.0
2019-Feb-06 09:28N 53°31' E 008°35'0 0.0
2019-Feb-06 08:58N 53°31' E 008°35'0 0.0
2019-Feb-06 08:28N 53°31' E 008°35'0 0.0
2019-Feb-06 07:58N 53°31' E 008°35'0 0.0
2019-Feb-06 07:28N 53°31' E 008°35'0 0.0
2019-Feb-06 06:58N 53°31' E 008°35'0 0.0
2019-Feb-06 06:28N 53°31' E 008°35'0 0.0
2019-Feb-06 05:58N 53°31' E 008°35'0 0.0
2019-Feb-06 05:28N 53°31' E 008°35'0 0.0
2019-Feb-06 05:00N 53°31' E 008°35'0 0.0
2019-Feb-06 04:30N 53°31' E 008°35'0 0.0
2019-Feb-06 04:00N 53°31' E 008°35'0 0.0
2019-Feb-06 03:30N 53°31' E 008°35'0 0.0
2019-Feb-06 03:00N 53°31' E 008°35'0 0.0
2019-Feb-06 02:30N 53°31' E 008°35'0 0.0
2019-Feb-06 02:00N 53°31' E 008°35'0 0.0
2019-Feb-06 01:30N 53°31' E 008°35'0 0.0
2019-Feb-06 01:00N 53°31' E 008°35'0 0.0
2019-Feb-06 00:30N 53°31' E 008°35'0 0.0
2019-Feb-06 00:00N 53°31' E 008°35'  

Dump ship's entire track history